createdAt,value
2023-01-13T00:01:29.113Z,7.50
2023-01-13T00:03:57.468Z,7.63
2023-01-13T00:06:29.333Z,7.82
2023-01-13T00:09:02.253Z,7.31
2023-01-13T00:11:29.812Z,7.29
2023-01-13T00:13:57.684Z,7.79
2023-01-13T00:16:25.358Z,7.61
2023-01-13T00:18:53.112Z,6.70
2023-01-13T00:21:23.604Z,6.40
2023-01-13T00:23:55.202Z,6.59
2023-01-13T00:26:26.367Z,6.59
2023-01-13T00:28:58.156Z,6.78
2023-01-13T00:31:27.513Z,6.47
2023-01-13T00:34:00.100Z,5.83
2023-01-13T00:36:30.765Z,6.29
2023-01-13T00:38:58.940Z,5.86
2023-01-13T00:41:27.575Z,6.09
2023-01-13T00:43:55.480Z,6.40
2023-01-13T00:46:23.141Z,6.73
2023-01-13T00:48:51.704Z,6.20
2023-01-13T00:51:21.552Z,6.20
2023-01-13T00:53:51.713Z,6.45
2023-01-13T00:56:34.172Z,6.27
2023-01-13T00:59:06.605Z,6.01
2023-01-13T01:01:34.612Z,6.07
2023-01-13T01:04:02.348Z,6.08
2023-01-13T01:06:29.926Z,6.20
2023-01-13T01:08:58.672Z,6.30
2023-01-13T01:11:29.624Z,6.37
2023-01-13T01:13:59.276Z,6.38
2023-01-13T01:16:29.687Z,6.46
2023-01-13T01:18:58.367Z,6.54
2023-01-13T01:21:27.922Z,6.25
2023-01-13T01:23:58.780Z,6.27
2023-01-13T01:26:28.354Z,6.20
2023-01-13T01:28:57.135Z,6.04
2023-01-13T01:31:27.578Z,6.18
2023-01-13T01:33:55.177Z,6.10
2023-01-13T01:36:26.794Z,6.06
2023-01-13T01:38:56.105Z,5.56
2023-01-13T01:41:27.480Z,5.99
2023-01-13T01:43:59.748Z,6.04
2023-01-13T01:46:54.928Z,6.25
2023-01-13T01:49:32.805Z,6.48
2023-01-13T01:52:17.130Z,6.31
2023-01-13T01:55:06.491Z,6.40
2023-01-13T01:58:18.323Z,6.50
2023-01-13T02:00:46.061Z,6.56
2023-01-13T02:03:16.266Z,6.61
2023-01-13T02:05:43.989Z,6.45
2023-01-13T02:08:13.522Z,6.25
2023-01-13T02:10:45.602Z,6.14
2023-01-13T02:13:13.920Z,5.75
2023-01-13T02:16:13.358Z,6.19
2023-01-13T02:19:01.101Z,6.29
2023-01-13T02:21:51.302Z,5.94
2023-01-13T02:24:54.366Z,5.95
2023-01-13T02:27:22.516Z,6.34
2023-01-13T02:30:18.708Z,6.44
2023-01-13T02:33:13.127Z,6.60
2023-01-13T02:36:01.182Z,6.48
2023-01-13T02:38:35.017Z,5.99
2023-01-13T02:41:34.440Z,5.67
2023-01-13T02:44:07.078Z,5.26
2023-01-13T02:46:47.027Z,5.46
2023-01-13T02:49:23.669Z,5.35
2023-01-13T02:51:55.002Z,4.94
2023-01-13T02:54:27.440Z,5.08
2023-01-13T02:56:57.422Z,5.46
2023-01-13T02:59:27.948Z,5.09
2023-01-13T03:01:57.814Z,4.83
2023-01-13T03:04:49.771Z,4.73
2023-01-13T03:07:42.215Z,5.02
2023-01-13T03:10:16.997Z,4.86
2023-01-13T03:12:56.683Z,5.28
2023-01-13T03:15:30.416Z,4.97
2023-01-13T03:17:58.112Z,4.87
2023-01-13T03:20:32.476Z,5.05
2023-01-13T03:23:30.230Z,4.80
2023-01-13T03:26:08.506Z,4.75
2023-01-13T03:28:42.820Z,4.93
2023-01-13T03:31:16.162Z,4.59
2023-01-13T03:34:13.272Z,5.07
2023-01-13T03:36:44.189Z,4.69
2023-01-13T03:39:19.391Z,4.55
2023-01-13T03:41:59.923Z,4.96
2023-01-13T03:44:33.960Z,5.22
2023-01-13T03:47:21.933Z,4.99
2023-01-13T03:50:13.180Z,5.16
2023-01-13T03:52:47.655Z,5.09
2023-01-13T03:55:21.366Z,5.23
2023-01-13T03:58:00.267Z,5.03
2023-01-13T04:00:38.118Z,4.85
2023-01-13T04:03:13.495Z,4.57
2023-01-13T04:05:47.488Z,4.68
2023-01-13T04:08:21.233Z,4.86
2023-01-13T04:11:14.641Z,4.80
2023-01-13T04:13:45.734Z,4.28
2023-01-13T04:16:13.646Z,4.04
2023-01-13T04:18:41.476Z,4.33
2023-01-13T04:21:09.643Z,4.40
2023-01-13T04:23:37.204Z,3.95
2023-01-13T04:26:04.901Z,4.37
2023-01-13T04:28:34.936Z,4.62
2023-01-13T04:31:02.589Z,4.33
2023-01-13T04:33:30.173Z,4.18
2023-01-13T04:35:58.067Z,4.34
2023-01-13T04:38:25.895Z,4.03
2023-01-13T04:40:53.552Z,4.12
2023-01-13T04:43:21.540Z,4.38
2023-01-13T04:45:49.151Z,4.27
2023-01-13T04:48:16.784Z,4.09
2023-01-13T04:50:44.939Z,4.17
2023-01-13T04:53:12.509Z,4.58
2023-01-13T04:55:40.262Z,4.19
2023-01-13T04:58:10.105Z,4.26
2023-01-13T05:00:38.104Z,4.40
2023-01-13T05:03:05.693Z,4.95
2023-01-13T05:05:33.728Z,4.80
2023-01-13T05:08:01.485Z,4.32
2023-01-13T05:10:29.285Z,4.25
2023-01-13T05:13:15.904Z,4.67
2023-01-13T05:16:04.126Z,4.94
2023-01-13T05:18:33.176Z,4.70
2023-01-13T05:21:00.932Z,4.77
2023-01-13T05:23:47.202Z,4.75
2023-01-13T05:26:15.043Z,4.43
2023-01-13T05:28:42.808Z,4.57
2023-01-13T05:31:12.175Z,4.45
2023-01-13T05:33:40.115Z,5.03
2023-01-13T05:36:08.206Z,4.85
2023-01-13T05:38:35.835Z,4.97
2023-01-13T05:41:22.407Z,5.00
2023-01-13T05:43:49.993Z,5.15
2023-01-13T05:46:18.018Z,4.93
2023-01-13T05:48:46.230Z,4.88
2023-01-13T05:51:14.057Z,4.52
2023-01-13T05:53:42.081Z,4.59
2023-01-13T05:56:11.136Z,4.74
2023-01-13T05:58:38.795Z,4.93
2023-01-13T06:01:08.457Z,4.86
2023-01-13T06:03:36.853Z,4.83
2023-01-13T06:06:04.797Z,3.99
2023-01-13T06:08:32.737Z,4.37
2023-01-13T06:11:01.182Z,4.64
2023-01-13T06:13:28.887Z,4.58
2023-01-13T06:15:58.243Z,5.12
2023-01-13T06:18:27.441Z,4.91
2023-01-13T06:20:55.430Z,4.89
2023-01-13T06:23:23.620Z,5.27
2023-01-13T06:26:03.507Z,5.12
2023-01-13T06:28:33.303Z,4.63
2023-01-13T06:31:06.016Z,5.02
2023-01-13T06:33:40.925Z,5.14
2023-01-13T06:36:24.200Z,4.95
2023-01-13T06:38:56.916Z,5.05
2023-01-13T06:41:45.440Z,5.04
2023-01-13T06:44:13.195Z,5.43
2023-01-13T06:46:41.134Z,4.82
2023-01-13T06:49:09.244Z,5.39
2023-01-13T06:51:37.027Z,5.30
2023-01-13T06:54:05.298Z,5.54
2023-01-13T06:56:32.964Z,5.67
2023-01-13T06:59:00.930Z,5.71
2023-01-13T07:01:28.976Z,5.58
2023-01-13T07:03:58.183Z,5.44
2023-01-13T07:06:25.911Z,5.31
2023-01-13T07:08:53.763Z,5.64
2023-01-13T07:11:21.573Z,5.91
2023-01-13T07:14:07.934Z,6.16
2023-01-13T07:16:35.891Z,5.80
2023-01-13T07:19:04.230Z,6.47
2023-01-13T07:21:31.998Z,6.82
2023-01-13T07:24:00.156Z,6.32
2023-01-13T07:26:27.774Z,6.58
2023-01-13T07:28:55.355Z,6.72
2023-01-13T07:31:23.544Z,5.90
2023-01-13T07:33:51.401Z,6.87
2023-01-13T07:36:19.010Z,6.94
2023-01-13T07:38:46.992Z,6.95
2023-01-13T07:41:34.192Z,5.90
2023-01-13T07:44:06.131Z,5.62
2023-01-13T07:46:34.046Z,5.25
2023-01-13T07:49:01.954Z,5.26
2023-01-13T07:51:29.806Z,5.51
2023-01-13T07:53:57.579Z,5.78
2023-01-13T07:56:25.539Z,5.47
2023-01-13T07:58:53.522Z,5.25
2023-01-13T08:01:21.500Z,5.43
2023-01-13T08:03:49.540Z,5.41
2023-01-13T08:06:17.361Z,5.03
2023-01-13T08:08:45.163Z,4.63
2023-01-13T08:11:13.044Z,5.05
2023-01-13T08:13:40.662Z,4.10
2023-01-13T08:16:11.570Z,4.94
2023-01-13T08:18:40.213Z,5.43
2023-01-13T08:21:11.475Z,4.65
2023-01-13T08:23:40.545Z,5.00
2023-01-13T08:26:11.441Z,5.51
2023-01-13T08:28:42.981Z,5.74
2023-01-13T08:31:16.908Z,5.59
2023-01-13T08:33:45.612Z,5.15
2023-01-13T08:36:13.933Z,5.17
2023-01-13T08:38:42.167Z,4.93
2023-01-13T08:41:12.488Z,4.97
2023-01-13T08:43:40.751Z,5.35
2023-01-13T08:46:08.403Z,4.86
2023-01-13T08:48:36.643Z,4.97
2023-01-13T08:51:06.609Z,4.96
2023-01-13T08:53:34.416Z,5.43
2023-01-13T08:56:02.468Z,4.72
2023-01-13T08:58:30.121Z,4.53
2023-01-13T09:00:57.982Z,4.08
2023-01-13T09:03:26.079Z,4.81
2023-01-13T09:05:53.748Z,5.01
2023-01-13T09:08:21.491Z,4.73
2023-01-13T09:10:49.502Z,4.28
2023-01-13T09:13:21.805Z,4.71
2023-01-13T09:15:49.896Z,4.51
2023-01-13T09:18:17.498Z,4.59
2023-01-13T09:20:45.100Z,4.76
2023-01-13T09:23:13.246Z,4.70
2023-01-13T09:25:40.921Z,4.85
2023-01-13T09:28:08.919Z,4.70
2023-01-13T09:30:37.816Z,5.08
2023-01-13T09:33:24.361Z,4.47
2023-01-13T09:35:52.320Z,4.45
2023-01-13T09:38:20.009Z,4.43
2023-01-13T09:40:49.528Z,5.10
2023-01-13T09:43:41.822Z,5.10
2023-01-13T09:46:37.469Z,4.99
2023-01-13T09:49:05.887Z,5.51
2023-01-13T09:51:39.397Z,5.74
2023-01-13T09:54:16.587Z,5.75
2023-01-13T09:56:44.453Z,5.88
2023-01-13T09:59:12.820Z,5.67
2023-01-13T10:02:02.264Z,5.11
2023-01-13T10:04:30.224Z,5.63
2023-01-13T10:07:05.910Z,5.55
2023-01-13T10:09:51.437Z,6.31
2023-01-13T10:12:45.333Z,5.98
2023-01-13T10:15:26.206Z,6.36
2023-01-13T10:18:09.296Z,6.42
2023-01-13T10:20:52.878Z,5.74
2023-01-13T10:23:46.474Z,6.12
2023-01-13T10:26:34.273Z,6.47
2023-01-13T10:29:01.914Z,6.53
2023-01-13T10:31:29.891Z,6.61
2023-01-13T10:34:04.155Z,6.91
2023-01-13T10:36:32.167Z,6.94
2023-01-13T10:39:14.917Z,6.99
2023-01-13T10:41:44.175Z,7.00
2023-01-13T10:44:18.947Z,7.00
2023-01-13T10:46:58.268Z,7.14
2023-01-13T10:49:32.709Z,7.40
2023-01-13T10:52:02.150Z,6.65
2023-01-13T10:54:30.586Z,6.59
2023-01-13T10:57:20.733Z,7.10
2023-01-13T10:59:51.010Z,7.02
2023-01-13T11:02:29.463Z,7.22
2023-01-13T11:05:03.260Z,7.40
2023-01-13T11:07:38.884Z,7.54
2023-01-13T11:10:09.739Z,7.65
2023-01-13T11:12:58.636Z,7.86
2023-01-13T11:15:45.416Z,7.87
2023-01-13T11:18:16.057Z,8.33
2023-01-13T11:20:47.766Z,8.22
2023-01-13T11:23:29.881Z,8.44
2023-01-13T11:26:27.275Z,8.23
2023-01-13T11:29:09.806Z,8.42
2023-01-13T11:31:54.383Z,8.21
2023-01-13T11:34:39.648Z,8.08
2023-01-13T11:37:19.198Z,8.45
2023-01-13T11:39:48.371Z,8.49
2023-01-13T11:42:32.113Z,8.05
2023-01-13T11:45:16.893Z,7.90
2023-01-13T11:47:48.389Z,7.99
2023-01-13T11:50:43.594Z,7.88
2023-01-13T11:53:26.362Z,8.30
2023-01-13T11:56:02.135Z,8.56
2023-01-13T11:58:51.213Z,8.21
2023-01-13T12:01:57.271Z,8.15
2023-01-13T12:04:25.351Z,8.52
2023-01-13T12:07:01.903Z,8.68
2023-01-13T12:09:54.848Z,8.21
2023-01-13T12:12:23.391Z,8.19
2023-01-13T12:15:18.570Z,8.23
2023-01-13T12:17:46.146Z,8.26
2023-01-13T12:21:03.888Z,8.05
2023-01-13T12:23:50.490Z,8.17
2023-01-13T12:26:18.464Z,8.29
2023-01-13T12:28:54.711Z,8.04
2023-01-13T12:31:23.686Z,7.99
2023-01-13T12:34:00.311Z,7.99
2023-01-13T12:36:39.499Z,8.16
2023-01-13T12:39:19.460Z,8.27
2023-01-13T12:42:37.071Z,7.81
2023-01-13T12:45:22.167Z,8.16
2023-01-13T12:47:50.677Z,7.69
2023-01-13T12:50:24.841Z,8.18
2023-01-13T12:52:55.276Z,8.00
2023-01-13T12:55:36.039Z,8.02
2023-01-13T12:58:06.839Z,8.09
2023-01-13T13:00:38.608Z,7.86
2023-01-13T13:03:12.491Z,8.25
2023-01-13T13:06:03.661Z,7.67
2023-01-13T13:08:37.857Z,7.73
2023-01-13T13:11:37.976Z,7.97
2023-01-13T13:14:13.888Z,7.68
2023-01-13T13:16:46.416Z,7.41
2023-01-13T13:19:18.092Z,7.79
2023-01-13T13:22:13.231Z,7.52
2023-01-13T13:24:43.155Z,7.48
2023-01-13T13:27:35.895Z,7.63
2023-01-13T13:30:26.583Z,7.88
2023-01-13T13:33:15.386Z,7.32
2023-01-13T13:35:52.980Z,7.69
2023-01-13T13:39:03.396Z,7.68
2023-01-13T13:41:54.692Z,7.51
2023-01-13T13:45:01.233Z,7.28
2023-01-13T13:47:39.024Z,7.44
2023-01-13T13:50:18.475Z,7.86
2023-01-13T13:52:55.780Z,7.37
2023-01-13T13:55:28.728Z,7.34
2023-01-13T13:57:58.948Z,7.18
2023-01-13T14:00:34.285Z,7.33
2023-01-13T14:03:17.292Z,7.30
2023-01-13T14:06:13.575Z,6.93
2023-01-13T14:08:46.657Z,6.98
2023-01-13T14:11:33.951Z,6.99
2023-01-13T14:14:07.217Z,7.24
2023-01-13T14:16:38.245Z,6.77
2023-01-13T14:19:06.476Z,6.72
2023-01-13T14:21:34.349Z,6.67
2023-01-13T14:24:16.508Z,6.83
2023-01-13T14:26:44.449Z,6.90
2023-01-13T14:29:18.538Z,6.71
2023-01-13T14:31:47.634Z,7.03
2023-01-13T14:34:31.017Z,7.32
2023-01-13T14:37:02.959Z,7.27
2023-01-13T14:39:40.979Z,6.87
2023-01-13T14:42:17.200Z,6.94
2023-01-13T14:44:47.419Z,7.46
2023-01-13T14:47:28.053Z,7.52
2023-01-13T14:50:11.262Z,7.05
2023-01-13T14:52:55.684Z,7.51
2023-01-13T14:55:33.779Z,7.39
2023-01-13T14:58:20.630Z,7.01
2023-01-13T15:00:52.567Z,7.32
2023-01-13T15:03:21.415Z,7.41
2023-01-13T15:05:51.732Z,7.30
2023-01-13T15:08:27.425Z,7.62
2023-01-13T15:11:06.708Z,7.86
2023-01-13T15:13:50.452Z,7.71
2023-01-13T15:16:25.405Z,7.96
2023-01-13T15:18:55.210Z,7.68
2023-01-13T15:21:23.657Z,7.44
2023-01-13T15:23:51.518Z,7.02
2023-01-13T15:26:26.759Z,7.29
2023-01-13T15:28:56.951Z,7.24
2023-01-13T15:31:26.104Z,7.47
2023-01-13T15:33:54.777Z,6.93
2023-01-13T15:36:24.908Z,7.30
2023-01-13T15:38:53.069Z,7.31
2023-01-13T15:41:40.931Z,7.63
2023-01-13T15:44:31.756Z,7.62
2023-01-13T15:47:02.644Z,7.40
2023-01-13T15:49:35.157Z,7.36
2023-01-13T15:52:22.485Z,7.45
2023-01-13T15:54:51.598Z,7.47
2023-01-13T15:57:30.192Z,7.80
2023-01-13T16:00:01.730Z,7.58
2023-01-13T16:02:34.674Z,7.77
2023-01-13T16:05:02.627Z,7.97
2023-01-13T16:07:30.390Z,7.48
2023-01-13T16:09:59.624Z,7.21
2023-01-13T16:12:27.729Z,7.52
2023-01-13T16:14:55.410Z,6.96
2023-01-13T16:17:25.159Z,7.24
2023-01-13T16:19:53.973Z,7.20
2023-01-13T16:22:23.240Z,7.14
2023-01-13T16:24:50.832Z,7.20
2023-01-13T16:27:21.489Z,7.28
2023-01-13T16:29:50.797Z,6.63
2023-01-13T16:32:21.081Z,6.44
2023-01-13T16:34:49.409Z,7.51
2023-01-13T16:37:25.078Z,7.33
2023-01-13T16:39:54.733Z,6.92
2023-01-13T16:42:22.887Z,6.35
2023-01-13T16:44:52.949Z,6.94
2023-01-13T16:47:22.825Z,6.89
2023-01-13T16:49:53.796Z,6.84
2023-01-13T16:52:22.353Z,6.52
2023-01-13T16:54:50.060Z,6.92
2023-01-13T16:57:17.788Z,6.76
2023-01-13T16:59:46.174Z,6.66
2023-01-13T17:02:15.643Z,6.75
2023-01-13T17:04:43.537Z,6.68
2023-01-13T17:07:16.953Z,6.38
2023-01-13T17:09:44.779Z,6.66
2023-01-13T17:12:13.297Z,6.53
2023-01-13T17:14:43.371Z,6.49
2023-01-13T17:17:22.983Z,6.36
2023-01-13T17:19:52.781Z,6.44
2023-01-13T17:22:21.412Z,6.82
2023-01-13T17:24:49.016Z,7.10
2023-01-13T17:27:18.641Z,7.13
2023-01-13T17:29:47.555Z,6.82
2023-01-13T17:32:17.926Z,7.17
2023-01-13T17:34:46.041Z,7.13
2023-01-13T17:37:14.587Z,7.15
2023-01-13T17:39:44.330Z,7.36
2023-01-13T17:42:13.327Z,7.35
2023-01-13T17:44:41.205Z,7.30
2023-01-13T17:47:08.795Z,7.37
2023-01-13T17:49:37.034Z,7.16
2023-01-13T17:52:05.278Z,7.33
2023-01-13T17:54:33.582Z,7.35
2023-01-13T17:57:01.834Z,7.27
2023-01-13T17:59:29.506Z,7.43
2023-01-13T18:01:57.309Z,7.37
2023-01-13T18:04:28.929Z,7.38
2023-01-13T18:06:59.260Z,7.09
2023-01-13T18:09:27.241Z,7.11
2023-01-13T18:11:54.901Z,6.97
2023-01-13T18:14:22.614Z,6.85
2023-01-13T18:16:51.378Z,7.13
2023-01-13T18:19:37.971Z,7.05
2023-01-13T18:22:24.740Z,7.17
2023-01-13T18:25:10.628Z,7.16
2023-01-13T18:27:41.414Z,6.54
2023-01-13T18:30:15.007Z,7.09
2023-01-13T18:32:42.948Z,7.18
2023-01-13T18:35:10.942Z,7.24
2023-01-13T18:37:41.985Z,7.53
2023-01-13T18:40:14.077Z,7.61
2023-01-13T18:42:52.186Z,7.41
2023-01-13T18:45:31.374Z,7.48
2023-01-13T18:48:01.715Z,7.62
2023-01-13T18:50:30.345Z,7.82
2023-01-13T18:52:58.904Z,7.73
2023-01-13T18:55:28.640Z,7.71
2023-01-13T18:57:57.445Z,7.87
2023-01-13T19:00:26.903Z,7.61
2023-01-13T19:05:36.113Z,7.58
2023-01-13T19:08:05.019Z,7.47
2023-01-13T19:10:33.064Z,7.69
2023-01-13T19:13:01.661Z,7.70
2023-01-13T19:15:30.317Z,7.70
2023-01-13T19:17:58.544Z,7.80
2023-01-13T19:20:26.717Z,7.92
2023-01-13T19:22:54.577Z,7.79
2023-01-13T19:25:22.306Z,7.48
2023-01-13T19:27:50.435Z,7.88
2023-01-13T19:30:19.519Z,7.29
2023-01-13T19:32:47.533Z,7.40
2023-01-13T19:35:18.019Z,8.04
2023-01-13T19:37:45.838Z,8.10
2023-01-13T19:40:14.619Z,8.13
2023-01-13T19:43:02.403Z,7.84
2023-01-13T19:45:32.205Z,7.88
2023-01-13T19:48:05.565Z,7.92
2023-01-13T19:50:39.839Z,7.43
2023-01-13T19:53:14.367Z,7.51
2023-01-13T19:55:47.724Z,7.17
2023-01-13T19:58:19.983Z,7.32
2023-01-13T20:00:48.513Z,7.50
2023-01-13T20:03:20.593Z,7.97
2023-01-13T20:05:48.224Z,7.82
2023-01-13T20:08:18.094Z,7.96
2023-01-13T20:10:46.716Z,7.65
2023-01-13T20:13:15.874Z,7.27
2023-01-13T20:15:44.098Z,7.31
2023-01-13T20:18:11.839Z,7.64
2023-01-13T20:20:41.274Z,7.63
2023-01-13T20:23:09.599Z,6.91
2023-01-13T20:25:37.338Z,7.53
2023-01-13T20:28:07.224Z,7.44
2023-01-13T20:30:35.245Z,7.13
2023-01-13T20:33:02.884Z,7.15
2023-01-13T20:35:30.462Z,6.82
2023-01-13T20:37:58.673Z,7.04
2023-01-13T20:40:26.359Z,7.18
2023-01-13T20:42:54.764Z,6.88
2023-01-13T20:45:23.445Z,7.25
2023-01-13T20:47:51.271Z,7.49
2023-01-13T20:50:19.743Z,7.24
2023-01-13T20:52:48.021Z,6.41
2023-01-13T20:55:15.681Z,6.68
2023-01-13T20:57:43.701Z,6.71
2023-01-13T21:00:12.164Z,6.71
2023-01-13T21:02:41.662Z,6.44
2023-01-13T21:05:10.141Z,7.02
2023-01-13T21:07:38.119Z,6.45
2023-01-13T21:10:07.135Z,6.33
2023-01-13T21:12:53.400Z,6.48
2023-01-13T21:15:22.174Z,6.13
2023-01-13T21:18:10.014Z,6.41
2023-01-13T21:20:39.106Z,6.14
2023-01-13T21:23:07.463Z,6.36
2023-01-13T21:25:37.245Z,6.74
2023-01-13T21:28:11.081Z,5.89
2023-01-13T21:30:39.674Z,6.13
2023-01-13T21:33:08.248Z,6.51
2023-01-13T21:35:38.867Z,6.25
2023-01-13T21:38:07.106Z,6.60
2023-01-13T21:40:34.972Z,6.74
2023-01-13T21:43:21.426Z,6.54
2023-01-13T21:46:07.948Z,6.31
2023-01-13T21:48:35.704Z,6.49
2023-01-13T21:51:03.979Z,6.25
2023-01-13T21:53:31.804Z,6.26
2023-01-13T21:55:59.463Z,6.30
2023-01-13T21:58:27.446Z,6.35
2023-01-13T22:00:55.244Z,6.33
2023-01-13T22:03:23.290Z,6.33
2023-01-13T22:05:55.715Z,6.64
2023-01-13T22:08:23.685Z,6.60
2023-01-13T22:10:57.591Z,6.61
2023-01-13T22:13:47.646Z,6.96
2023-01-13T22:16:16.067Z,6.92
2023-01-13T22:18:43.999Z,6.75
2023-01-13T22:21:11.619Z,6.76
2023-01-13T22:23:39.252Z,6.74
2023-01-13T22:26:08.240Z,7.04
2023-01-13T22:28:42.887Z,7.04
2023-01-13T22:31:15.258Z,7.03
2023-01-13T22:33:43.683Z,7.28
2023-01-13T22:36:11.511Z,7.31
2023-01-13T22:38:39.723Z,7.02
2023-01-13T22:41:09.506Z,7.27
2023-01-13T22:43:38.137Z,7.02
2023-01-13T22:46:11.097Z,7.08
2023-01-13T22:48:40.556Z,7.44
2023-01-13T22:51:16.164Z,7.37
2023-01-13T22:53:44.677Z,7.37
2023-01-13T22:56:20.974Z,7.22
2023-01-13T22:58:56.057Z,6.46
2023-01-13T23:01:25.090Z,6.92
2023-01-13T23:03:53.489Z,6.46
2023-01-13T23:06:22.987Z,5.94
2023-01-13T23:08:51.339Z,6.32
2023-01-13T23:11:20.961Z,6.46
2023-01-13T23:13:48.532Z,6.78
2023-01-13T23:16:24.044Z,6.75
2023-01-13T23:18:52.048Z,6.85
2023-01-13T23:21:23.063Z,6.91
2023-01-13T23:23:51.074Z,6.78
2023-01-13T23:26:19.691Z,6.89
2023-01-13T23:28:48.107Z,6.68
2023-01-13T23:31:18.626Z,6.89
2023-01-13T23:33:47.331Z,6.50
2023-01-13T23:36:18.187Z,6.22
2023-01-13T23:38:46.866Z,5.62
2023-01-13T23:41:17.384Z,5.20
2023-01-13T23:43:59.710Z,5.91
2023-01-13T23:46:30.305Z,5.47
2023-01-13T23:48:58.079Z,5.84
2023-01-13T23:51:27.554Z,5.70
2023-01-13T23:53:56.321Z,5.66
2023-01-13T23:56:27.235Z,6.12
2023-01-13T23:58:55.532Z,6.18
